createdAt,value
2018-04-25T00:01:51.396Z,23.10
2018-04-25T00:04:19.253Z,23.10
2018-04-25T00:06:47.109Z,23.10
2018-04-25T00:09:14.972Z,23.20
2018-04-25T00:11:42.760Z,23.10
2018-04-25T00:14:10.660Z,23.10
2018-04-25T00:16:39.251Z,23.10
2018-04-25T00:19:07.821Z,23.10
2018-04-25T00:21:36.951Z,23.10
2018-04-25T00:24:04.783Z,23.00
2018-04-25T00:26:33.383Z,23.00
2018-04-25T00:29:01.176Z,23.10
2018-04-25T00:31:29.039Z,23.10
2018-04-25T00:33:56.813Z,23.10
2018-04-25T00:36:24.599Z,23.00
2018-04-25T00:38:52.390Z,23.10
2018-04-25T00:41:21.036Z,23.00
2018-04-25T00:43:48.945Z,23.00
2018-04-25T00:46:17.601Z,23.00
2018-04-25T00:48:45.460Z,23.10
2018-04-25T00:51:13.330Z,22.90
2018-04-25T00:53:41.141Z,22.60
2018-04-25T00:56:09.031Z,22.40
2018-04-25T00:58:36.961Z,22.20
2018-04-25T01:01:05.612Z,21.90
2018-04-25T01:03:33.503Z,21.90
2018-04-25T01:06:02.115Z,22.00
2018-04-25T01:08:30.004Z,22.00
2018-04-25T01:10:57.892Z,22.00
2018-04-25T01:13:25.796Z,22.10
2018-04-25T01:15:54.449Z,22.20
2018-04-25T01:18:22.343Z,22.20
2018-04-25T01:20:51.008Z,22.20
2018-04-25T01:23:24.509Z,22.20
2018-04-25T01:25:58.740Z,22.30
2018-04-25T01:28:38.251Z,22.40
2018-04-25T01:31:10.768Z,22.30
2018-04-25T01:33:41.422Z,22.40
2018-04-25T01:39:32.909Z,22.50
2018-04-25T01:42:00.795Z,22.50
2018-04-25T01:44:30.160Z,22.40
2018-04-25T01:47:15.560Z,22.30
2018-04-25T01:49:52.179Z,22.30
2018-04-25T01:52:31.812Z,22.30
2018-04-25T01:55:11.471Z,22.30
2018-04-25T01:57:50.967Z,22.30
2018-04-25T02:00:31.418Z,22.20
2018-04-25T02:02:58.652Z,22.20
2018-04-25T02:05:26.432Z,22.20
2018-04-25T02:07:54.207Z,22.20
2018-04-25T02:10:22.771Z,22.10
2018-04-25T02:12:50.559Z,22.10
2018-04-25T02:15:19.096Z,22.10
2018-04-25T02:17:46.888Z,22.10
2018-04-25T02:20:14.679Z,22.20
2018-04-25T02:22:43.272Z,22.10
2018-04-25T02:25:11.140Z,22.10
2018-04-25T02:27:38.940Z,22.10
2018-04-25T02:30:06.753Z,22.00
2018-04-25T02:32:35.308Z,21.90
2018-04-25T02:35:03.147Z,21.90
2018-04-25T02:37:30.998Z,21.70
2018-04-25T02:39:58.790Z,21.40
2018-04-25T02:42:26.594Z,21.20
2018-04-25T02:44:55.148Z,21.10
2018-04-25T02:47:22.945Z,21.10
2018-04-25T02:49:51.503Z,20.90
2018-04-25T02:52:19.288Z,20.90
2018-04-25T02:54:47.843Z,20.70
2018-04-25T02:57:15.656Z,20.70
2018-04-25T02:59:43.433Z,20.70
2018-04-25T03:02:11.230Z,20.70
2018-04-25T03:04:39.026Z,20.80
2018-04-25T03:07:07.584Z,21.00
2018-04-25T03:09:35.365Z,20.90
2018-04-25T03:12:03.135Z,21.10
2018-04-25T03:14:31.697Z,21.20
2018-04-25T03:16:59.484Z,21.20
2018-04-25T03:19:28.041Z,21.20
2018-04-25T03:21:55.883Z,21.20
2018-04-25T03:24:23.667Z,21.30
2018-04-25T03:26:51.476Z,21.30
2018-04-25T03:29:20.030Z,21.40
2018-04-25T03:31:47.833Z,21.40
2018-04-25T03:34:15.621Z,21.40
2018-04-25T03:36:43.419Z,21.40
2018-04-25T03:39:12.006Z,21.40
2018-04-25T03:41:39.815Z,21.40
2018-04-25T03:44:07.599Z,21.40
2018-04-25T03:46:35.383Z,21.40
2018-04-25T03:49:03.180Z,21.40
2018-04-25T03:51:31.756Z,21.30
2018-04-25T03:53:59.551Z,21.30
2018-04-25T03:56:27.340Z,21.30
2018-04-25T03:58:55.148Z,21.30
2018-04-25T04:01:22.935Z,21.30
2018-04-25T04:03:51.475Z,21.20
2018-04-25T04:06:19.268Z,21.30
2018-04-25T04:08:47.853Z,21.20
2018-04-25T04:11:16.478Z,21.20
2018-04-25T04:13:44.307Z,21.20
2018-04-25T04:16:12.851Z,21.10
2018-04-25T04:18:40.660Z,21.10
2018-04-25T04:21:09.222Z,20.80
2018-04-25T04:23:37.016Z,20.80
2018-04-25T04:26:05.585Z,20.50
2018-04-25T04:28:34.229Z,20.30
2018-04-25T04:31:02.028Z,20.30
2018-04-25T04:33:30.589Z,20.20
2018-04-25T04:35:58.367Z,20.10
2018-04-25T04:38:26.163Z,20.10
2018-04-25T04:40:53.953Z,20.00
2018-04-25T04:43:22.519Z,19.90
2018-04-25T04:45:50.304Z,19.90
2018-04-25T04:48:18.145Z,19.90
2018-04-25T04:50:45.932Z,19.80
2018-04-25T04:53:13.750Z,19.70
2018-04-25T04:55:42.312Z,19.60
2018-04-25T04:58:10.096Z,19.60
2018-04-25T05:00:38.696Z,19.60
2018-04-25T05:03:07.344Z,19.40
2018-04-25T05:05:35.128Z,19.50
2018-04-25T05:08:02.932Z,19.40
2018-04-25T05:10:30.723Z,19.40
2018-04-25T05:12:58.541Z,19.50
2018-04-25T05:15:26.337Z,19.40
2018-04-25T05:17:54.152Z,19.50
2018-04-25T05:20:22.738Z,19.50
2018-04-25T05:22:51.331Z,19.50
2018-04-25T05:25:19.898Z,19.50
2018-04-25T05:27:47.678Z,19.50
2018-04-25T05:30:16.269Z,19.50
2018-04-25T05:32:44.872Z,19.60
2018-04-25T05:35:12.648Z,19.60
2018-04-25T05:37:40.468Z,19.60
2018-04-25T05:40:09.027Z,19.50
2018-04-25T05:42:36.814Z,19.50
2018-04-25T05:45:05.446Z,19.50
2018-04-25T05:47:33.250Z,19.50
2018-04-25T05:50:01.035Z,19.50
2018-04-25T05:52:29.595Z,19.40
2018-04-25T05:54:57.384Z,19.40
2018-04-25T05:57:25.964Z,19.20
2018-04-25T05:59:54.535Z,19.20
2018-04-25T06:02:23.119Z,19.10
2018-04-25T06:04:51.664Z,19.10
2018-04-25T06:07:19.460Z,19.00
2018-04-25T06:09:47.252Z,19.00
2018-04-25T06:12:15.052Z,19.00
2018-04-25T06:14:42.879Z,19.00
2018-04-25T06:17:11.452Z,19.00
2018-04-25T06:19:40.028Z,19.00
2018-04-25T06:22:08.642Z,19.00
2018-04-25T06:24:36.537Z,18.90
2018-04-25T06:27:04.353Z,19.00
2018-04-25T06:29:33.014Z,18.90
2018-04-25T06:32:01.619Z,18.90
2018-04-25T06:34:30.173Z,18.80
2018-04-25T06:36:58.028Z,18.80
2018-04-25T06:39:25.941Z,18.80
2018-04-25T06:41:53.735Z,18.70
2018-04-25T06:44:21.522Z,18.70
2018-04-25T06:46:49.311Z,18.70
2018-04-25T06:49:17.107Z,18.70
2018-04-25T06:51:44.913Z,18.60
2018-04-25T06:54:12.692Z,18.60
2018-04-25T06:56:40.496Z,18.50
2018-04-25T06:59:08.298Z,18.50
2018-04-25T07:01:36.105Z,18.40
2018-04-25T07:04:03.905Z,18.40
2018-04-25T07:06:31.703Z,18.40
2018-04-25T07:08:59.489Z,18.40
2018-04-25T07:11:27.275Z,18.30
2018-04-25T07:13:55.853Z,18.30
2018-04-25T07:16:24.419Z,18.20
2018-04-25T07:18:52.209Z,18.20
2018-04-25T07:21:20.118Z,18.20
2018-04-25T07:23:47.925Z,18.20
2018-04-25T07:26:15.729Z,18.20
2018-04-25T07:28:43.520Z,18.30
2018-04-25T07:31:11.367Z,18.30
2018-04-25T07:33:39.815Z,18.40
2018-04-25T07:36:07.604Z,18.40
2018-04-25T07:38:35.428Z,18.50
2018-04-25T07:41:03.213Z,18.60
2018-04-25T07:43:31.772Z,18.70
2018-04-25T07:45:59.560Z,18.70
2018-04-25T07:48:28.200Z,18.80
2018-04-25T07:50:55.995Z,18.80
2018-04-25T07:53:23.785Z,18.90
2018-04-25T07:55:51.577Z,18.90
2018-04-25T07:58:19.351Z,19.00
2018-04-25T08:00:47.136Z,19.10
2018-04-25T08:03:14.908Z,19.10
2018-04-25T08:05:42.689Z,19.20
2018-04-25T08:08:11.231Z,19.30
2018-04-25T08:10:39.018Z,19.30
2018-04-25T08:13:18.457Z,19.40
2018-04-25T08:15:57.992Z,19.40
2018-04-25T08:18:37.533Z,19.50
2018-04-25T08:24:08.286Z,19.60
2018-04-25T08:26:36.133Z,19.50
2018-04-25T08:29:04.039Z,19.60
2018-04-25T08:31:31.934Z,19.60
2018-04-25T08:33:59.728Z,19.70
2018-04-25T08:36:27.512Z,19.70
2018-04-25T08:38:55.375Z,19.80
2018-04-25T08:41:23.168Z,19.80
2018-04-25T08:43:53.562Z,19.90
2018-04-25T08:46:21.404Z,19.90
2018-04-25T08:48:49.196Z,19.90
2018-04-25T08:51:16.984Z,20.00
2018-04-25T08:53:45.571Z,19.90
2018-04-25T08:56:14.129Z,19.90
2018-04-25T08:58:41.913Z,19.90
2018-04-25T09:01:10.504Z,19.80
2018-04-25T09:03:39.056Z,19.60
2018-04-25T09:06:06.929Z,19.60
2018-04-25T09:08:34.707Z,19.40
2018-04-25T09:11:03.288Z,19.10
2018-04-25T09:13:31.872Z,19.00
2018-04-25T09:15:59.651Z,19.00
2018-04-25T09:18:28.890Z,18.90
2018-04-25T09:20:57.491Z,19.00
2018-04-25T09:23:25.267Z,19.00
2018-04-25T09:25:53.052Z,19.10
2018-04-25T09:28:21.613Z,19.10
2018-04-25T09:30:49.465Z,19.10
2018-04-25T09:33:17.240Z,19.10
2018-04-25T09:35:45.029Z,19.10
2018-04-25T09:38:13.589Z,19.00
2018-04-25T09:40:41.409Z,19.00
2018-04-25T09:43:09.196Z,18.90
2018-04-25T09:45:37.003Z,18.90
2018-04-25T09:48:04.801Z,18.90
2018-04-25T09:50:32.649Z,19.00
2018-04-25T09:53:02.158Z,19.00
2018-04-25T09:55:31.015Z,18.90
2018-04-25T10:01:31.416Z,18.90
2018-04-25T10:04:01.026Z,18.90
2018-04-25T10:06:29.537Z,18.90
2018-04-25T10:08:57.331Z,18.90
2018-04-25T10:11:25.120Z,19.00
2018-04-25T10:13:52.905Z,19.00
2018-04-25T10:16:21.459Z,19.00
2018-04-25T10:18:49.255Z,19.00
2018-04-25T10:21:17.917Z,19.10
2018-04-25T10:23:46.399Z,19.10
2018-04-25T10:26:14.181Z,19.10
2018-04-25T10:28:42.780Z,19.10
2018-04-25T10:31:10.585Z,19.10
2018-04-25T10:33:38.386Z,19.10
2018-04-25T10:36:06.951Z,19.10
2018-04-25T10:38:34.756Z,19.10
2018-04-25T10:41:03.376Z,19.10
2018-04-25T10:43:31.144Z,19.10
2018-04-25T10:45:58.919Z,19.10
2018-04-25T10:48:26.703Z,19.10
2018-04-25T10:50:54.484Z,19.10
2018-04-25T10:53:22.276Z,19.00
2018-04-25T10:55:50.069Z,19.00
2018-04-25T10:58:17.856Z,18.90
2018-04-25T11:00:45.644Z,18.90
2018-04-25T11:03:15.015Z,18.80
2018-04-25T11:05:42.861Z,18.70
2018-04-25T11:08:10.709Z,18.70
2018-04-25T11:10:38.539Z,18.70
2018-04-25T11:13:08.108Z,18.60
2018-04-25T11:15:35.917Z,18.60
2018-04-25T11:18:04.549Z,18.60
2018-04-25T11:20:32.332Z,18.50
2018-04-25T11:23:00.125Z,18.40
2018-04-25T11:25:28.685Z,18.40
2018-04-25T11:27:56.475Z,18.40
2018-04-25T11:30:25.463Z,18.50
2018-04-25T11:32:54.154Z,18.60
2018-04-25T11:35:22.733Z,18.60
2018-04-25T11:37:50.525Z,18.60
2018-04-25T11:40:18.320Z,18.60
2018-04-25T11:42:46.139Z,18.70
2018-04-25T11:45:14.729Z,18.70
2018-04-25T11:47:42.532Z,18.70
2018-04-25T11:50:10.384Z,18.70
2018-04-25T11:52:38.169Z,18.80
2018-04-25T11:55:05.972Z,18.90
2018-04-25T11:57:34.558Z,19.00
2018-04-25T12:00:03.148Z,19.10
2018-04-25T12:02:30.952Z,19.00
2018-04-25T12:04:58.759Z,19.10
2018-04-25T12:07:26.536Z,19.10
2018-04-25T12:09:55.270Z,19.20
2018-04-25T12:12:23.039Z,19.20
2018-04-25T12:14:51.686Z,19.40
2018-04-25T12:17:19.461Z,19.40
2018-04-25T12:19:47.316Z,19.50
2018-04-25T12:22:15.220Z,19.50
2018-04-25T12:24:43.004Z,19.60
2018-04-25T12:27:11.693Z,19.70
2018-04-25T12:29:39.476Z,19.70
2018-04-25T12:32:07.299Z,19.80
2018-04-25T12:34:35.109Z,19.80
2018-04-25T12:37:03.663Z,19.80
2018-04-25T12:39:31.451Z,19.80
2018-04-25T12:42:00.078Z,20.00
2018-04-25T12:44:27.871Z,19.90
2018-04-25T12:46:55.695Z,20.00
2018-04-25T12:49:23.494Z,20.10
2018-04-25T12:51:51.271Z,20.20
2018-04-25T12:54:19.100Z,20.20
2018-04-25T12:56:46.876Z,20.20
2018-04-25T12:59:14.674Z,20.20
2018-04-25T13:01:44.853Z,20.30
2018-04-25T13:04:12.676Z,20.30
2018-04-25T13:06:41.213Z,20.30
2018-04-25T13:09:09.089Z,20.30
2018-04-25T13:11:36.835Z,20.20
2018-04-25T13:14:04.784Z,20.20
2018-04-25T13:16:32.569Z,20.20
2018-04-25T13:19:00.341Z,20.30
2018-04-25T13:21:28.121Z,20.30
2018-04-25T13:23:56.762Z,20.30
2018-04-25T13:26:24.609Z,20.20
2018-04-25T13:28:53.235Z,20.40
2018-04-25T13:31:21.018Z,20.40
2018-04-25T13:33:48.822Z,20.40
2018-04-25T13:36:16.643Z,20.40
2018-04-25T13:38:44.423Z,20.40
2018-04-25T13:41:12.204Z,20.50
2018-04-25T13:43:40.024Z,20.50
2018-04-25T13:46:07.887Z,20.60
2018-04-25T13:48:35.716Z,20.60
2018-04-25T13:51:04.297Z,20.80
2018-04-25T13:53:32.841Z,20.90
2018-04-25T13:56:00.626Z,20.90
2018-04-25T13:58:28.414Z,21.00
2018-04-25T14:00:56.949Z,21.20
2018-04-25T14:03:24.771Z,21.20
2018-04-25T14:05:52.567Z,21.30
2018-04-25T14:08:20.385Z,21.30
2018-04-25T14:10:48.257Z,21.40
2018-04-25T14:13:16.796Z,21.50
2018-04-25T14:15:44.828Z,21.40
2018-04-25T14:18:12.630Z,21.60
2018-04-25T14:20:40.460Z,21.60
2018-04-25T14:23:08.273Z,21.60
2018-04-25T14:25:36.314Z,21.60
2018-04-25T14:28:04.119Z,21.60
2018-04-25T14:30:31.908Z,21.60
2018-04-25T14:33:00.473Z,21.60
2018-04-25T14:35:29.062Z,21.50
2018-04-25T14:37:57.609Z,21.50
2018-04-25T14:40:25.431Z,21.50
2018-04-25T14:42:53.212Z,21.60
2018-04-25T14:45:21.018Z,21.60
2018-04-25T14:47:48.816Z,21.60
2018-04-25T14:50:16.604Z,21.60
2018-04-25T14:52:44.416Z,21.70
2018-04-25T14:55:12.207Z,21.70
2018-04-25T14:57:40.086Z,21.70
2018-04-25T15:00:08.145Z,21.70
2018-04-25T15:02:36.712Z,21.70
2018-04-25T15:05:05.273Z,21.60
2018-04-25T15:07:33.063Z,21.60
2018-04-25T15:10:01.605Z,21.60
2018-04-25T15:12:29.398Z,21.60
2018-04-25T15:14:57.973Z,21.60
2018-04-25T15:17:25.849Z,21.50
2018-04-25T15:19:54.476Z,21.40
2018-04-25T15:22:22.276Z,21.40
2018-04-25T15:24:50.069Z,21.40
2018-04-25T15:27:19.281Z,21.30
2018-04-25T15:29:48.052Z,21.30
2018-04-25T15:32:16.635Z,21.30
2018-04-25T15:34:45.212Z,21.20
2018-04-25T15:37:13.798Z,21.10
2018-04-25T15:39:42.260Z,21.10
2018-04-25T15:42:10.055Z,21.00
2018-04-25T15:44:38.603Z,20.90
2018-04-25T15:47:06.397Z,20.90
2018-04-25T15:49:34.960Z,20.90
2018-04-25T15:52:02.748Z,20.90
2018-04-25T15:54:31.297Z,20.90
2018-04-25T15:56:59.091Z,20.90
2018-04-25T15:59:27.644Z,20.90
2018-04-25T16:01:55.441Z,20.90
2018-04-25T16:04:23.998Z,20.90
2018-04-25T16:06:51.790Z,20.90
2018-04-25T16:09:20.345Z,20.80
2018-04-25T16:11:48.133Z,20.80
2018-04-25T16:14:16.684Z,20.80
2018-04-25T16:16:44.516Z,20.80
2018-04-25T16:19:12.292Z,20.80
2018-04-25T16:21:40.080Z,20.80
2018-04-25T16:24:07.912Z,20.80
2018-04-25T16:26:35.683Z,20.80
2018-04-25T16:29:03.471Z,20.80
2018-04-25T16:31:31.264Z,20.80
2018-04-25T16:33:59.810Z,20.80
2018-04-25T16:36:27.664Z,20.80
2018-04-25T16:38:55.511Z,20.80
2018-04-25T16:41:23.324Z,20.70
2018-04-25T16:43:51.112Z,20.70
2018-04-25T16:46:19.715Z,20.60
2018-04-25T16:48:47.516Z,20.60
2018-04-25T16:51:15.287Z,20.70
2018-04-25T16:53:43.072Z,20.60
2018-04-25T16:56:10.907Z,20.60
2018-04-25T16:58:39.519Z,20.60
2018-04-25T17:01:07.296Z,20.60
2018-04-25T17:03:35.084Z,20.60
2018-04-25T17:06:02.890Z,20.70
2018-04-25T17:08:30.680Z,20.70
2018-04-25T17:10:58.480Z,20.70
2018-04-25T17:13:26.256Z,20.70
2018-04-25T17:15:54.046Z,20.70
2018-04-25T17:18:21.838Z,20.70
2018-04-25T17:20:49.664Z,20.70
2018-04-25T17:23:17.455Z,20.70
2018-04-25T17:25:45.234Z,20.70
2018-04-25T17:28:13.020Z,20.70
2018-04-25T17:30:41.594Z,20.70
2018-04-25T17:33:10.140Z,20.70
2018-04-25T17:35:37.916Z,20.70
2018-04-25T17:38:05.732Z,20.70
2018-04-25T17:40:33.503Z,20.60
2018-04-25T17:43:01.293Z,20.70
2018-04-25T17:45:29.174Z,20.60
2018-04-25T17:47:56.990Z,20.70
2018-04-25T17:50:24.790Z,20.60
2018-04-25T17:52:52.566Z,20.60
2018-04-25T17:55:20.362Z,20.60
2018-04-25T17:57:49.026Z,20.60
2018-04-25T18:00:16.812Z,20.60
2018-04-25T18:02:45.362Z,20.60
2018-04-25T18:05:13.224Z,20.50
2018-04-25T18:07:41.010Z,20.60
2018-04-25T18:10:08.809Z,20.60
2018-04-25T18:12:36.603Z,20.60
2018-04-25T18:15:04.765Z,20.60
2018-04-25T18:17:32.540Z,20.60
2018-04-25T18:20:00.369Z,20.60
2018-04-25T18:22:28.938Z,20.70
2018-04-25T18:24:57.530Z,20.70
2018-04-25T18:27:26.082Z,20.70
2018-04-25T18:29:53.867Z,20.60
2018-04-25T18:32:22.436Z,20.60
2018-04-25T18:34:50.237Z,20.60
2018-04-25T18:37:18.038Z,20.60
2018-04-25T18:39:45.823Z,20.60
2018-04-25T18:42:13.621Z,20.50
2018-04-25T18:44:44.665Z,20.50
2018-04-25T18:47:13.230Z,20.50
2018-04-25T18:49:41.824Z,20.50
2018-04-25T18:52:10.407Z,20.50
2018-04-25T18:54:38.984Z,20.50
2018-04-25T18:57:07.587Z,20.60
2018-04-25T18:59:35.445Z,20.60
2018-04-25T19:02:04.098Z,20.60
2018-04-25T19:04:31.973Z,20.60
2018-04-25T19:06:59.868Z,20.60
2018-04-25T19:09:27.718Z,20.60
2018-04-25T19:11:56.325Z,20.60
2018-04-25T19:14:24.217Z,20.60
2018-04-25T19:16:52.052Z,20.60
2018-04-25T19:19:19.868Z,20.60
2018-04-25T19:21:47.764Z,20.60
2018-04-25T19:24:16.923Z,20.60
2018-04-25T19:26:44.793Z,20.60
2018-04-25T19:29:12.612Z,20.70
2018-04-25T19:31:40.537Z,20.60
2018-04-25T19:34:08.436Z,20.70
2018-04-25T19:36:37.055Z,20.70
2018-04-25T19:39:04.866Z,20.60
2018-04-25T19:41:32.789Z,20.70
2018-04-25T19:44:00.614Z,20.70
2018-04-25T19:46:29.247Z,20.70
2018-04-25T19:48:57.068Z,20.70
2018-04-25T19:51:25.659Z,20.70
2018-04-25T19:53:53.471Z,20.70
2018-04-25T19:56:21.280Z,20.70
2018-04-25T19:58:49.892Z,20.60
2018-04-25T20:01:17.891Z,20.60
2018-04-25T20:03:45.752Z,20.70
2018-04-25T20:06:13.556Z,20.70
2018-04-25T20:08:42.185Z,20.70
2018-04-25T20:11:10.139Z,20.70
2018-04-25T20:13:38.004Z,20.70
2018-04-25T20:16:05.823Z,20.70
2018-04-25T20:18:33.656Z,20.70
2018-04-25T20:21:01.456Z,20.70
2018-04-25T20:23:29.268Z,20.70
2018-04-25T20:25:57.063Z,20.70
2018-04-25T20:28:24.855Z,20.70
2018-04-25T20:30:52.647Z,20.70
2018-04-25T20:33:21.213Z,20.70
2018-04-25T20:35:49.799Z,20.70
2018-04-25T20:38:18.360Z,20.70
2018-04-25T20:40:46.160Z,20.70
2018-04-25T20:43:14.730Z,20.70
2018-04-25T20:45:43.389Z,20.70
2018-04-25T20:48:11.181Z,20.70
2018-04-25T20:50:39.723Z,20.70
2018-04-25T20:53:07.550Z,20.70
2018-04-25T20:55:35.365Z,20.70
2018-04-25T20:58:03.194Z,20.70
2018-04-25T21:00:30.997Z,20.70
2018-04-25T21:02:58.800Z,20.70
2018-04-25T21:05:27.372Z,20.60
2018-04-25T21:07:55.990Z,20.60
2018-04-25T21:10:23.888Z,20.60
2018-04-25T21:12:51.676Z,20.60
2018-04-25T21:15:19.549Z,20.60
2018-04-25T21:17:48.118Z,20.60
2018-04-25T21:20:16.758Z,20.60
2018-04-25T21:22:44.549Z,20.50
2018-04-25T21:25:12.363Z,20.60
2018-04-25T21:27:40.184Z,20.60
2018-04-25T21:30:08.705Z,20.60
2018-04-25T21:32:37.403Z,20.60
2018-04-25T21:35:05.233Z,20.60
2018-04-25T21:37:33.028Z,20.60
2018-04-25T21:40:00.813Z,20.60
2018-04-25T21:42:28.611Z,20.60
2018-04-25T21:44:56.427Z,20.60
2018-04-25T21:47:24.212Z,20.60
2018-04-25T21:49:52.060Z,20.60
2018-04-25T21:52:19.934Z,20.60
2018-04-25T21:54:47.712Z,20.60
2018-04-25T21:57:15.504Z,20.60
2018-04-25T21:59:43.284Z,20.60
2018-04-25T22:02:11.135Z,20.50
2018-04-25T22:04:39.000Z,20.50
2018-04-25T22:07:06.792Z,20.50
2018-04-25T22:09:35.348Z,20.50
2018-04-25T22:12:03.136Z,20.50
2018-04-25T22:14:31.695Z,20.50
2018-04-25T22:16:59.550Z,20.50
2018-04-25T22:19:27.347Z,20.50
2018-04-25T22:21:55.127Z,20.50
2018-04-25T22:24:23.680Z,20.40
2018-04-25T22:26:51.493Z,20.40
2018-04-25T22:29:19.395Z,20.40
2018-04-25T22:31:47.208Z,20.40
2018-04-25T22:34:15.003Z,20.40
2018-04-25T22:36:42.836Z,20.30
2018-04-25T22:39:11.426Z,20.30
2018-04-25T22:41:39.972Z,20.30
2018-04-25T22:44:07.768Z,20.30
2018-04-25T22:46:36.307Z,20.30
2018-04-25T22:49:04.172Z,20.30
2018-04-25T22:51:31.949Z,20.30
2018-04-25T22:53:59.747Z,20.30
2018-04-25T22:56:28.287Z,20.40
2018-04-25T22:58:56.077Z,20.30
2018-04-25T23:01:24.628Z,20.40
2018-04-25T23:03:52.421Z,20.30
2018-04-25T23:06:20.199Z,20.40
2018-04-25T23:08:48.764Z,20.40
2018-04-25T23:11:16.566Z,20.40
2018-04-25T23:13:44.364Z,20.40
2018-04-25T23:16:12.136Z,20.40
2018-04-25T23:18:39.943Z,20.40
2018-04-25T23:21:08.498Z,20.40
2018-04-25T23:23:36.287Z,20.40
2018-04-25T23:26:04.925Z,20.40
2018-04-25T23:28:32.737Z,20.40
2018-04-25T23:31:01.295Z,20.40
2018-04-25T23:33:29.075Z,20.40
2018-04-25T23:35:57.628Z,20.30
2018-04-25T23:38:25.436Z,20.30
2018-04-25T23:40:53.983Z,20.30
2018-04-25T23:43:21.781Z,20.30
2018-04-25T23:45:50.376Z,20.30
2018-04-25T23:48:18.177Z,20.30
2018-04-25T23:50:46.092Z,20.30
2018-04-25T23:53:14.691Z,20.30
2018-04-25T23:55:42.487Z,20.40
2018-04-25T23:58:10.272Z,20.30
